Dulac, LA (70353)

5:55 AM CDT on May 03, 2015 (GMT -0500)
Schoen/Hutchinson Camps | | Change Station
CLOSE
Current Station
Personal Weather Station
Location: Cocodrie, LA
Elevation: 0 ft
Nearby Weather Stations

Elev 0 ft 29.35 °N, 90.63 °W | Updated 13 minutes ago

Mostly Cloudy
Mostly Cloudy
72.2 °F
Feels Like 74 °F
N
0.0
Wind Variable Wind from SSE

Today
High -- | Low -- °F
--% Chance of Precip.
Yesterday
High -- | Low -- °F
Precip. -- in
6:19 AM 7:40 PM
Full, 100% visible
Pressure 30.06 in
Visibility 5.0 miles
Clouds Scattered Clouds 7500 ft
Heat Index 74 °F
Dew Point 63 °F
Humidity 73%
Rainfall 0.00 in
Snow Depth Not available.
UV 0 out of 12
Pollen 6.00 out of 12
Air Quality Not available.
Flu Activity Sporadic
METAR KHUM 031050Z 00000KT 5SM BR SCT075 18/18 A3006 RMK ATIS K VA RY18...RC

More Conditions Fewer Conditions

Pressure 30.06 in
Visibility 5.0 miles
Clouds Scattered Clouds 7500 ft
Heat Index 74 °F
Dew Point 63 °F
Humidity 73%
Rainfall 0.00 in
Snow Depth Not available.
UV 0 out of 12
Pollen 6.00 out of 12
Air Quality Not available.
Flu Activity Sporadic
METAR KHUM 031050Z 00000KT 5SM BR SCT075 18/18 A3006 RMK ATIS K VA RY18...RC

More Conditions Fewer Conditions

Nepal has a long way to go to dig out and rebuild from a devastating earthquake. We have teamed up with several charities and organizations to make contributing to the relief effort as easy as possible.
How you can help: Portlight Strategies | Red Cross

10-Day Weather Forecast

Almanac

Astronomy

May. 03, 2015 Rise Set
Actual Time
Civil Twilight
Nautical Twilight
Astronomical Twilight
Moon
Length of Visible Light
Length of Day
Tomorrow will be .
, % of the Moon is Illuminated

Today's Extremes

State Highs State Lows

Community

WunderPhotos

Upload Photos

1,818,187 photos uploaded!

WunderBlogs® & News

Nearby

Air Quality

  Air Quality AQ Index Pollutant
Not available.

Snow Depth

Station Depth Elevation

Earthquake Activity

City Distance Mag. Time & Date
Minimum magnitude displayed is 2.5.

Coastal Water Temperatures

Place Temperature

Stations

Nearby Weather Stations

Station Location Temp. Windchill Dew Point Humidity Wind Precip. Elev Updated Type